Welcome, Maryland
Current Conditions -  °F | °C
As of 9:56 PM on Thursday 18 Dec 2014 (Local Time) from KNYG Reporting Station
Clear Clear  
Wind Chill: 30°   Ceiling: Unl
Heat Index: 36°   Visibility: 10mi
Dew Point: 22°   Wind: 7mph
Humidity: 57%   Direction: 20°NNE
Pressure: 30.13"   Gusts: NA
Location:  38.48°N, 77.09°W
Report Text: KNYG 190256Z AUTO 02006KT 10SM CLR 02/M06 A3013 RMK AO2 SLP202 T00221056 58007 $
Loading
Personal Weather Stations






























Interactive Weather Map New forecast layout! Learn more

10-Day Weather Forecast

Advertisements
Track Severe Weather on mobile